Flight Track Log - Related Links

Times and Time Zones

All times are in EDT time to prevent confusion due to time zone crossing. See the VOZ9502 flight status page for this flight to view local times or setup timezone preferences in your user account.

Time Position Orientation Groundspeed Altitude Reporting Facility
EDT Latitude Longitude Course Direction KTS MPH feet Rate Location/Type
Mon 10:50:12 AM -21.1514 149.1669 318° Northwest 137 158 1,700  Level Aus ATC (RADAR)
Mon 10:51:11 AM -21.1161 149.1324 318° Northwest 178 205 4,100 2,710 Climbing Aus ATC (RADAR)
Mon 10:52:16 AM -21.1749 149.0857 216° Southwest 280 322 7,300 3,138 Climbing Aus ATC (RADAR)
Mon 10:53:21 AM -21.2263 149.1635 125° Southeast 306 352 10,900 3,231 Climbing Aus ATC (RADAR)
Mon 10:54:26 AM -21.3029 149.2275 142° Southeast 336 387 14,300 3,600 Climbing Aus ATC (RADAR)
Mon 10:55:26 AM -21.3985 149.2529 166° South 355 409 18,400 3,822 Climbing Aus ATC (RADAR)
Mon 10:56:41 AM -21.5182 149.2901 164° South 366 421 22,900 2,756 Climbing Aus ATC (RADAR)
Mon 10:57:41 AM -21.6224 149.3346 158° South 412 474 24,600 2,031 Climbing Aus ATC (RADAR)
Mon 10:58:51 AM -21.7567 149.3918 158° South 448 516 27,300 2,538 Climbing Aus ATC (RADAR)
Mon 10:59:51 AM -21.8722 149.4402 159° South 444 511 30,100 2,448 Climbing Aus ATC (RADAR)
Mon 11:00:56 AM -21.9954 149.4916 159° South 441 507 32,400 2,140 Climbing Aus ATC (RADAR)
Mon 11:02:00 AM -22.1157 149.5562 154° Southeast 455 524 34,700 1,866 Climbing Aus ATC (RADAR)
Mon 11:02:55 AM -22.1980 149.6090 150° Southeast 461 531 36,100 1,800 Climbing FlightAware ADS-B
Mon 11:03:00 AM -22.2265 149.6255 150° Southeast 462 532 36,500 2,211 Climbing Aus ATC (RADAR)
Mon 11:03:33 AM -22.2710 149.6550 150° Southeast 455 524 37,500 2,492 Climbing FlightAware ADS-B
Mon 11:04:05 AM -22.3444 149.6981 150° Southeast 447 514 39,200 2,545 Climbing Aus ATC (RADAR)
Mon 11:04:06 AM -22.3290 149.6910 150° Southeast 444 511 38,900 1,902 Descending FlightAware ADS-B
Mon 11:04:46 AM -22.4000 149.7350 150° Southeast 430 495 40,500 1,556 Climbing FlightAware ADS-B
Mon 11:05:27 AM -22.4700 149.7770 151° Southeast 428 493 41,000 411 Climbing FlightAware ADS-B
Mon 11:05:59 AM -22.5240 149.8110 150° Southeast 430 495 41,000  Level FlightAware ADS-B
Mon 11:06:32 AM -22.5800 149.8460 150° Southeast 431 496 41,000  Level FlightAware ADS-B
Mon 11:07:10 AM -22.6490 149.8890 150° Southeast 430 495 41,000  Level FlightAware ADS-B
Mon 11:08:03 AM -22.7180 149.9340 149° Southeast 430 495 41,000  Level FlightAware ADS-B
Mon 11:08:40 AM -22.8030 149.9860 151° Southeast 431 496 41,000  Level FlightAware ADS-B
Mon 11:09:12 AM -22.8580 150.0200 150° Southeast 432 497 41,000  Level FlightAware ADS-B
Mon 11:09:53 AM -22.9270 150.0640 150° Southeast 432 497 41,000  Level FlightAware ADS-B
Mon 11:10:23 AM -22.9820 150.0980 150° Southeast 431 496 41,000  Level FlightAware ADS-B
Mon 11:10:24 AM -22.9987 150.1081 150° Southeast 432 497 41,000  Level Aus ATC (RADAR)
Mon 11:10:55 AM -23.0380 150.1330 150° Southeast 430 495 41,000  Level FlightAware ADS-B
Mon 11:11:35 AM -23.1200 150.1850 150° Southeast 430 495 41,000  Level FlightAware ADS-B
Mon 11:12:07 AM -23.1720 150.2170 151° Southeast 431 496 41,000  Level FlightAware ADS-B
Mon 11:12:43 AM -23.2350 150.2570 150° Southeast 432 497 41,000  Level FlightAware ADS-B
Mon 11:13:23 AM -23.3020 150.3000 149° Southeast 431 496 41,000  Level FlightAware ADS-B
Mon 11:13:53 AM -23.3570 150.3340 150° Southeast 431 496 41,000  Level FlightAware ADS-B
Mon 11:14:28 AM -23.4190 150.3730 150° Southeast 430 495 41,000  Level FlightAware ADS-B
Mon 11:15:03 AM -23.4790 150.4110 150° Southeast 433 498 41,000  Level FlightAware ADS-B
Mon 11:15:04 AM -23.4812 150.4128 150° Southeast 431 496 41,000  Level Aus ATC (RADAR)
Mon 11:15:38 AM -23.5400 150.4500 150° Southeast 430 495 41,000  Level FlightAware ADS-B
Mon 11:16:14 AM -23.6040 150.4900 150° Southeast 431 496 41,000  Level FlightAware ADS-B
Mon 11:16:49 AM -23.6640 150.5290 149° Southeast 432 497 41,000  Level FlightAware ADS-B
Mon 11:17:24 AM -23.7260 150.5680 150° Southeast 435 501 41,000  Level FlightAware ADS-B
Mon 11:17:59 AM -23.7880 150.6080 149° Southeast 435 501 41,000  Level FlightAware ADS-B
Mon 11:18:34 AM -23.8500 150.6470 150° Southeast 444 511 41,000  Level FlightAware ADS-B
Mon 11:19:09 AM -23.9120 150.6870 149° Southeast 445 512 41,000  Level FlightAware ADS-B
Mon 11:19:45 AM -23.9750 150.7270 150° Southeast 447 514 41,000  Level FlightAware ADS-B
Mon 11:20:19 AM -24.0380 150.7670 150° Southeast 450 518 41,000 -158 Level FlightAware ADS-B
Mon 11:20:23 AM -24.0462 150.7718 150° Southeast 449 517 40,900  Descending Aus ATC (RADAR)
Mon 11:20:54 AM -24.1010 150.8070 150° Southeast 452 520 41,000 91 Climbing FlightAware ADS-B
Mon 11:21:29 AM -24.1640 150.8480 149° Southeast 446 513 41,000  Level FlightAware ADS-B
Mon 11:22:04 AM -24.2280 150.8890 150° Southeast 448 516 41,000  Level FlightAware ADS-B
Mon 11:22:39 AM -24.2900 150.9290 150° Southeast 449 517 41,000  Level FlightAware ADS-B
Mon 11:23:19 AM -24.3630 150.9760 150° Southeast 449 517 41,000  Level FlightAware ADS-B
Mon 11:23:54 AM -24.4270 151.0170 150° Southeast 449 517 41,000  Level FlightAware ADS-B
Mon 11:24:33 AM -24.5003 151.0629 150° Southeast 455 524 41,000  Level Aus ATC (RADAR)
Mon 11:24:34 AM -24.5010 151.0640 150° Southeast 449 517 41,000  Level FlightAware ADS-B
Mon 11:25:05 AM -24.5570 151.1010 149° Southeast 448 516 41,000  Level FlightAware ADS-B
Mon 11:25:37 AM -24.6110 151.1350 149° Southeast 448 516 41,000 -182 Level FlightAware ADS-B
Mon 11:25:38 AM -24.6183 151.1390 149° Southeast 453 521 40,900  Descending Aus ATC (RADAR)
Mon 11:26:17 AM -24.6870 151.1840 150° Southeast 448 516 41,000 81 Climbing FlightAware ADS-B
Mon 11:26:52 AM -24.7520 151.2270 150° Southeast 450 518 41,000  Level FlightAware ADS-B
Mon 11:26:53 AM -24.7544 151.2267 150° Southeast 453 521 41,000  Level Aus ATC (RADAR)
Mon 11:27:27 AM -24.8160 151.2690 149° Southeast 451 519 41,000  Level FlightAware ADS-B
Mon 11:28:02 AM -24.8800 151.3100 150° Southeast 453 521 41,000  Level FlightAware ADS-B
Mon 11:28:37 AM -24.9430 151.3510 149° Southeast 453 521 41,000  Level FlightAware ADS-B
Mon 11:29:15 AM -25.0110 151.3950 150° Southeast 461 531 41,000  Level FlightAware ADS-B
Mon 11:29:50 AM -25.0770 151.4380 149° Southeast 462 532 41,000  Level FlightAware ADS-B
Mon 11:30:20 AM -25.1330 151.4750 149° Southeast 462 532 41,000  Level FlightAware ADS-B
Mon 11:30:55 AM -25.1970 151.5130 149° Southeast 459 528 41,000  Level FlightAware ADS-B
Mon 11:31:02 AM -25.2144 151.5209 149° Southeast 456 525 41,000  Level Aus ATC (RADAR)
Mon 11:31:30 AM -25.2640 151.5520 152° Southeast 461 531 41,000  Level FlightAware ADS-B
Mon 11:32:07 AM -25.3365 151.5938 152° Southeast 458 527 41,000  Level Aus ATC (RADAR)
Mon 11:32:10 AM -25.3390 151.5970 152° Southeast 463 533 41,000  Level FlightAware ADS-B
Mon 11:32:40 AM -25.3970 151.6320 151° Southeast 464 534 41,000  Level FlightAware ADS-B
Mon 11:33:12 AM -25.4586 151.6692 151° Southeast 463 533 41,000  Level Aus ATC (RADAR)
Mon 11:33:15 AM -25.4610 151.6710 151° Southeast 465 535 41,000  Level FlightAware ADS-B
Mon 11:33:55 AM -25.5380 151.7180 151° Southeast 466 536 41,000  Level FlightAware ADS-B
Mon 11:34:30 AM -25.6030 151.7570 152° Southeast 465 535 41,000  Level FlightAware ADS-B
Mon 11:35:00 AM -25.6610 151.7930 151° Southeast 465 535 41,000  Level FlightAware ADS-B
Mon 11:35:40 AM -25.7370 151.8390 151° Southeast 465 535 41,000  Level FlightAware ADS-B
Mon 11:36:10 AM -25.7940 151.8730 152° Southeast 465 535 41,000  Level FlightAware ADS-B
Mon 11:36:45 AM -25.8610 151.9140 151° Southeast 466 536 41,000  Level FlightAware ADS-B
Mon 11:37:22 AM -25.9311 151.9562 151° Southeast 464 534 41,000 -150 Level Aus ATC (RADAR)
Mon 11:37:25 AM -25.9360 151.9600 151° Southeast 461 531 40,900 -2,684 Descending FlightAware ADS-B
Mon 11:38:00 AM -26.0030 152.0000 152° Southeast 467 537 39,300 -2,677 Descending FlightAware ADS-B
Mon 11:38:30 AM -26.0590 152.0340 151° Southeast 470 541 38,000 -2,585 Descending FlightAware ADS-B
Mon 11:39:05 AM -26.1260 152.0760 151° Southeast 471 542 36,500 -2,914 Descending FlightAware ADS-B
Mon 11:39:40 AM -26.1920 152.1160 151° Southeast 477 549 34,600 -3,280 Descending FlightAware ADS-B
Mon 11:40:20 AM -26.2710 152.1650 151° Southeast 483 556 32,400 -3,360 Descending FlightAware ADS-B
Mon 11:40:55 AM -26.3380 152.2050 152° Southeast 485 558 30,400 -3,138 Descending FlightAware ADS-B
Mon 11:41:25 AM -26.4000 152.2430 151° Southeast 479 551 29,000 -2,754 Descending FlightAware ADS-B
Mon 11:41:56 AM -26.4603 152.2790 151° Southeast 469 540 27,600 -2,700 Descending Aus ATC (RADAR)
Mon 11:42:05 AM -26.4760 152.2910 151° Southeast 470 541 27,200 -2,769 Descending FlightAware ADS-B
Mon 11:42:35 AM -26.5330 152.3270 151° Southeast 465 535 25,800 -2,727 Descending FlightAware ADS-B
Mon 11:43:00 AM -26.5770 152.3610 145° Southeast 465 535 24,700 -2,600 Descending FlightAware ADS-B
Mon 11:43:35 AM -26.6290 152.4200 135° Southeast 459 528 23,200 -2,585 Descending FlightAware ADS-B
Mon 11:44:05 AM -26.6730 152.4700 135° Southeast 454 522 21,900 -2,400 Descending FlightAware ADS-B
Mon 11:44:40 AM -26.7230 152.5250 136° Southeast 444 511 20,600 -2,000 Descending FlightAware ADS-B
Mon 11:45:20 AM -26.7830 152.5910 136° Southeast 429 494 19,400 -2,080 Descending FlightAware ADS-B
Mon 11:45:55 AM -26.8320 152.6460 135° Southeast 426 490 18,000 -2,123 Descending FlightAware ADS-B
Mon 11:46:25 AM -26.8720 152.6910 135° Southeast 416 479 17,100 -1,971 Descending FlightAware ADS-B
Mon 11:47:05 AM -26.9293 152.7528 135° Southeast 402 463 15,700 -1,800 Descending Aus ATC (RADAR)
Mon 11:47:05 AM -26.9280 152.7510 135° Southeast 407 468 15,900 -1,886 Climbing FlightAware ADS-B
Mon 11:47:40 AM -26.9760 152.8000 138° Southeast 403 464 14,600 -2,229 Descending FlightAware ADS-B
Mon 11:48:15 AM -27.0325 152.8412 138° Southeast 393 452 13,300 -1,784 Descending Aus ATC (RADAR)
Mon 11:48:17 AM -27.0300 152.8390 138° Southeast 397 457 13,500 -1,161 Climbing FlightAware ADS-B
Mon 11:48:46 AM -27.0770 152.8720 148° Southeast 384 442 12,700 -1,676 Descending FlightAware ADS-B
Mon 11:49:25 AM -27.1370 152.9120 149° Southeast 367 422 11,600 -1,714 Descending FlightAware ADS-B
Mon 11:49:35 AM -27.1530 152.9200 156° South 352 405 11,300 -1,543 Descending FlightAware ADS-B
Mon 11:50:00 AM -27.1900 152.9270 170° South 312 359 10,700 -1,527 Descending FlightAware ADS-B
Mon 11:50:30 AM -27.2310 152.9270 180° South 289 333 9,900 -1,855 Descending FlightAware ADS-B
Mon 11:50:55 AM -27.2620 152.9290 177° South 285 328 9,000 -2,267 Descending FlightAware ADS-B
Mon 11:51:15 AM -27.2910 152.9300 178° South 284 327 8,200 -2,400 Descending FlightAware ADS-B
Mon 11:51:30 AM -27.3090 152.9310 177° South 287 330 7,600 -1,886 Descending FlightAware ADS-B
Mon 11:51:50 AM -27.3370 152.9330 176° South 286 329 7,100 -1,650 Descending FlightAware ADS-B
Mon 11:52:10 AM -27.3630 152.9340 178° South 284 327 6,500 -1,600 Descending FlightAware ADS-B
Mon 11:52:35 AM -27.3970 152.9360 177° South 283 326 5,900 -1,440 Descending FlightAware ADS-B
Mon 11:53:00 AM -27.4300 152.9370 178° South 281 323 5,300 -1,200 Descending FlightAware ADS-B
Mon 11:53:20 AM -27.4550 152.9380 178° South 271 312 5,000 -1,000 Descending FlightAware ADS-B
Mon 11:53:30 AM -27.4682 152.9390 178° South 273 314 4,800 -300 Descending Aus ATC (RADAR)
Mon 11:53:40 AM -27.4770 152.9390 178° South 261 300 4,900 -343 Climbing FlightAware ADS-B
Mon 11:54:05 AM -27.5090 152.9410 177° South 253 291 4,600 -600 Descending FlightAware ADS-B
Mon 11:54:10 AM -27.5150 152.9430 164° South 254 292 4,600  Level FlightAware ADS-B
Mon 11:54:15 AM -27.5200 152.9460 152° Southeast 254 292 4,600 -400 Level FlightAware ADS-B
Mon 11:54:25 AM -27.5290 152.9540 142° Southeast 248 285 4,500 -600 Descending FlightAware ADS-B
Mon 11:54:45 AM -27.5430 152.9740 128° Southeast 232 267 4,300 -533 Descending FlightAware ADS-B
Mon 11:55:10 AM -27.5580 152.9970 126° Southeast 223 257 4,100 -686 Descending FlightAware ADS-B
Mon 11:55:20 AM -27.5610 153.0090 106° East 219 252 3,900 -1,200 Descending FlightAware ADS-B
Mon 11:55:40 AM -27.5550 153.0280 70° East 192 221 3,500 -1,200 Descending FlightAware ADS-B
Mon 11:55:50 AM -27.5480 153.0350 42° Northeast 185 213 3,300 -1,200 Descending FlightAware ADS-B
Mon 11:56:10 AM -27.5340 153.0430 27° Northeast 174 200 2,900 -900 Descending FlightAware ADS-B
Mon 11:56:30 AM -27.5200 153.0510 27° Northeast 163 188 2,700 -750 Descending FlightAware ADS-B
Mon 11:56:50 AM -27.5060 153.0590 27° Northeast 159 183 2,400 -900 Descending FlightAware ADS-B
Mon 11:57:10 AM -27.4940 153.0660 27° Northeast 153 176 2,100 -840 Descending FlightAware ADS-B
Mon 11:57:40 AM -27.4760 153.0760 26° Northeast 132 152 1,700 -720 Descending FlightAware ADS-B
Mon 11:58:00 AM -27.4660 153.0820 28° Northeast 122 140 1,500 -533 Descending FlightAware ADS-B
Mon 11:58:25 AM -27.4540 153.0890 27° Northeast 115 132 1,300 -533 Descending FlightAware ADS-B
Mon 11:58:45 AM -27.4440 153.0950 28° Northeast 117 135 1,100 -750 Descending FlightAware ADS-B
Mon 11:59:05 AM -27.4340 153.1000 24° Northeast 119 137 800 -750 Descending FlightAware ADS-B
Mon 11:59:25 AM -27.4250 153.1060 31° Northeast 124 143 600 -600 Descending FlightAware ADS-B
Mon 11:59:45 AM -27.4150 153.1110 24° Northeast 126 145 400 -667 Descending FlightAware ADS-B
Mon 12:00:10 PM -27.4010 153.1190 27° Northeast 127 146 100 -720 Descending FlightAware ADS-B
Mon 12:00:30 PM -27.3920 153.1240 26° Northeast 70 81 -300 Descending FlightAware ADS-B

Login

Don't have an account? Register now (free) for customized features, flight alerts, and more!